METAR Data
IDs: Format: Raw Decoded Include TAF

Data at: 2130 UTC 01 Dec 2021

LHDC 012045Z AUTO 18014KT CAVOK 05/02 Q1004